createdAt,value
2023-01-27T00:01:16.643Z,77.38
2023-01-27T00:08:18.308Z,78.20
2023-01-27T00:15:35.478Z,78.21
2023-01-27T00:22:55.936Z,78.45
2023-01-27T00:29:57.900Z,78.05
2023-01-27T00:37:01.813Z,76.73
2023-01-27T00:44:05.495Z,77.34
2023-01-27T00:51:07.184Z,76.79
2023-01-27T00:58:08.851Z,78.09
2023-01-27T01:05:10.899Z,78.03
2023-01-27T01:12:12.613Z,78.76
2023-01-27T01:19:14.298Z,78.55
2023-01-27T01:26:16.353Z,78.84
2023-01-27T01:33:18.101Z,78.86
2023-01-27T01:40:20.352Z,78.54
2023-01-27T01:47:25.031Z,78.20
2023-01-27T01:54:29.090Z,77.97
2023-01-27T02:01:32.642Z,78.55
2023-01-27T02:08:38.283Z,78.46
2023-01-27T02:15:41.033Z,78.18
2023-01-27T02:23:07.315Z,77.60
2023-01-27T02:30:14.590Z,77.18
2023-01-27T02:37:16.639Z,77.65
2023-01-27T02:44:18.978Z,76.43
2023-01-27T02:51:20.851Z,77.49
2023-01-27T02:58:23.277Z,77.01
2023-01-27T03:05:35.005Z,77.15
2023-01-27T03:12:36.795Z,77.72
2023-01-27T03:19:38.411Z,77.40
2023-01-27T03:26:40.724Z,76.97
2023-01-27T03:33:47.738Z,77.47
2023-01-27T03:41:31.174Z,77.26
2023-01-27T03:48:33.370Z,77.57
2023-01-27T03:55:35.883Z,77.74
2023-01-27T04:02:59.261Z,77.97
2023-01-27T04:10:01.700Z,77.37
2023-01-27T04:17:07.455Z,77.53
2023-01-27T04:24:17.348Z,78.21
2023-01-27T04:31:19.211Z,77.88
2023-01-27T04:38:20.996Z,78.02
2023-01-27T04:45:22.584Z,78.26
2023-01-27T04:52:24.270Z,78.25
2023-01-27T04:59:27.080Z,78.55
2023-01-27T05:06:28.942Z,78.66
2023-01-27T05:13:30.742Z,79.08
2023-01-27T05:20:32.471Z,79.71
2023-01-27T05:27:34.087Z,79.90
2023-01-27T05:34:35.960Z,78.86
2023-01-27T05:41:37.853Z,79.12
2023-01-27T05:48:43.992Z,79.12
2023-01-27T05:55:45.599Z,79.80
2023-01-27T06:02:47.352Z,79.59
2023-01-27T06:09:48.963Z,80.42
2023-01-27T06:16:50.635Z,80.74
2023-01-27T06:23:53.535Z,80.69
2023-01-27T06:30:55.420Z,81.07
2023-01-27T06:38:00.680Z,81.58
2023-01-27T06:45:02.300Z,81.81
2023-01-27T06:52:03.965Z,81.77
2023-01-27T06:59:05.647Z,82.06
2023-01-27T07:06:08.115Z,81.74
2023-01-27T07:13:11.767Z,82.23
2023-01-27T07:20:15.039Z,82.11
2023-01-27T07:27:16.897Z,82.83
2023-01-27T07:34:18.619Z,82.62
2023-01-27T07:41:22.931Z,83.17
2023-01-27T07:48:24.563Z,83.65
2023-01-27T07:55:26.400Z,84.52
2023-01-27T08:02:31.873Z,85.11
2023-01-27T08:09:33.492Z,86.99
2023-01-27T08:16:35.962Z,87.03
2023-01-27T08:23:37.649Z,88.31
2023-01-27T08:30:39.242Z,87.57
2023-01-27T08:37:40.952Z,87.89
2023-01-27T08:44:42.634Z,87.60
2023-01-27T08:51:44.531Z,88.67
2023-01-27T08:58:49.037Z,87.63
2023-01-27T09:05:50.668Z,87.77
2023-01-27T09:12:52.315Z,86.88
2023-01-27T09:19:54.023Z,87.83
2023-01-27T09:26:55.756Z,88.77
2023-01-27T09:33:57.485Z,88.83
2023-01-27T09:41:18.298Z,88.72
2023-01-27T09:48:23.405Z,88.39
2023-01-27T09:55:32.727Z,87.98
2023-01-27T10:02:57.525Z,89.68
2023-01-27T10:10:23.040Z,88.80
2023-01-27T10:17:28.267Z,88.63
2023-01-27T10:24:57.265Z,89.59
2023-01-27T10:32:17.711Z,88.65
2023-01-27T10:39:26.140Z,88.17
2023-01-27T10:46:40.857Z,88.64
2023-01-27T10:53:57.840Z,89.51
2023-01-27T11:08:27.306Z,86.48
2023-01-27T11:15:33.804Z,86.20
2023-01-27T11:22:48.091Z,84.82
2023-01-27T11:29:55.036Z,86.17
2023-01-27T11:36:57.043Z,84.65
2023-01-27T11:43:58.831Z,84.66
2023-01-27T11:51:00.429Z,83.81
2023-01-27T11:58:25.938Z,84.11
2023-01-27T12:05:31.078Z,82.47
2023-01-27T12:12:32.705Z,81.01
2023-01-27T12:19:41.374Z,81.37
2023-01-27T12:26:44.089Z,81.59
2023-01-27T12:33:46.989Z,80.77
2023-01-27T12:40:48.747Z,82.44
2023-01-27T12:47:59.040Z,82.05
2023-01-27T12:55:01.146Z,80.68
2023-01-27T13:02:20.106Z,80.97
2023-01-27T13:09:48.017Z,79.55
2023-01-27T13:16:53.758Z,79.09
2023-01-27T13:23:55.348Z,78.77
2023-01-27T13:31:02.726Z,78.85
2023-01-27T13:38:24.701Z,77.73
2023-01-27T13:45:45.991Z,76.93
2023-01-27T13:52:53.268Z,76.86
2023-01-27T14:00:04.424Z,76.83
2023-01-27T14:07:29.277Z,75.77
2023-01-27T14:14:58.475Z,74.99
2023-01-27T14:22:08.343Z,73.82
2023-01-27T14:29:28.289Z,73.57
2023-01-27T14:36:33.338Z,71.98
2023-01-27T14:44:19.685Z,72.21
2023-01-27T14:51:45.276Z,70.86
2023-01-27T14:58:56.856Z,71.46
2023-01-27T15:06:06.389Z,70.95
2023-01-27T15:13:49.807Z,71.33
2023-01-27T15:20:58.117Z,70.49
2023-01-27T15:28:00.346Z,70.49
2023-01-27T15:35:22.143Z,70.49
2023-01-27T15:42:26.215Z,70.29
2023-01-27T15:49:29.813Z,70.94
2023-01-27T15:56:52.102Z,71.74
2023-01-27T16:04:16.707Z,70.84
2023-01-27T16:11:30.907Z,70.31
2023-01-27T16:18:41.565Z,69.83
2023-01-27T16:25:48.740Z,69.68
2023-01-27T16:33:03.130Z,70.38
2023-01-27T16:40:10.841Z,70.44
2023-01-27T16:47:20.809Z,69.88
2023-01-27T16:54:25.177Z,69.75
2023-01-27T17:01:31.205Z,69.97
2023-01-27T17:08:50.921Z,70.22
2023-01-27T17:15:57.116Z,69.93
2023-01-27T17:22:59.193Z,70.04
2023-01-27T17:30:04.964Z,69.89
2023-01-27T17:37:27.076Z,69.77
2023-01-27T17:44:28.800Z,69.55
2023-01-27T17:51:34.721Z,69.80
2023-01-27T17:58:36.405Z,68.53
2023-01-27T18:05:38.235Z,68.79
2023-01-27T18:12:41.505Z,68.30
2023-01-27T18:19:56.260Z,68.29
2023-01-27T18:26:58.205Z,68.78
2023-01-27T18:34:01.894Z,68.37
2023-01-27T18:41:29.167Z,67.03
2023-01-27T18:48:31.647Z,67.43
2023-01-27T18:55:35.064Z,67.69
2023-01-27T19:02:37.185Z,67.83
2023-01-27T19:09:38.938Z,67.56
2023-01-27T19:16:40.752Z,67.35
2023-01-27T19:23:46.175Z,68.07
2023-01-27T19:30:47.981Z,67.31
2023-01-27T19:37:57.140Z,67.58
2023-01-27T19:44:58.965Z,67.10
2023-01-27T19:52:01.343Z,66.25
2023-01-27T19:59:04.698Z,66.55
2023-01-27T20:06:18.483Z,66.17
2023-01-27T20:13:20.284Z,65.64
2023-01-27T20:20:22.362Z,64.35
2023-01-27T20:27:24.016Z,64.81
2023-01-27T20:34:25.696Z,64.80
2023-01-27T20:41:27.515Z,64.19
2023-01-27T20:48:29.288Z,63.17
2023-01-27T20:55:31.522Z,62.86
2023-01-27T21:02:33.364Z,62.60
2023-01-27T21:09:35.129Z,60.65
2023-01-27T21:16:36.742Z,60.77
2023-01-27T21:23:38.602Z,59.91
2023-01-27T21:30:40.235Z,60.48
2023-01-27T21:37:42.674Z,60.97
2023-01-27T21:45:03.532Z,60.65
2023-01-27T21:52:05.420Z,61.17
2023-01-27T21:59:08.065Z,61.19
2023-01-27T22:06:09.984Z,61.53
2023-01-27T22:13:11.724Z,61.71
2023-01-27T22:20:17.746Z,61.49
2023-01-27T22:27:19.473Z,61.49
2023-01-27T22:34:21.260Z,62.19
2023-01-27T22:41:23.018Z,62.14
2023-01-27T22:48:24.721Z,63.13
2023-01-27T22:55:26.469Z,63.12
2023-01-27T23:02:29.617Z,63.41
2023-01-27T23:09:31.501Z,63.04
2023-01-27T23:16:33.146Z,63.28
2023-01-27T23:23:35.500Z,63.49
2023-01-27T23:30:37.374Z,62.97
2023-01-27T23:37:39.027Z,63.70
2023-01-27T23:44:40.742Z,63.64
2023-01-27T23:51:42.501Z,64.44
2023-01-27T23:58:44.294Z,64.13
